createdAt,value
2019-03-17T00:02:09.047Z,2.50
2019-03-17T00:04:36.475Z,2.60
2019-03-17T00:07:26.044Z,2.60
2019-03-17T00:09:53.677Z,2.30
2019-03-17T00:12:21.086Z,2.30
2019-03-17T00:14:48.694Z,2.50
2019-03-17T00:17:15.963Z,2.17
2019-03-17T00:19:46.354Z,2.30
2019-03-17T00:22:33.199Z,2.10
2019-03-17T00:25:08.937Z,2.13
2019-03-17T00:27:33.234Z,2.73
2019-03-17T00:30:00.703Z,2.23
2019-03-17T00:32:28.004Z,2.40
2019-03-17T00:34:55.405Z,2.10
2019-03-17T00:37:22.931Z,2.10
2019-03-17T00:39:50.254Z,2.77
2019-03-17T00:42:19.827Z,2.50
2019-03-17T00:44:47.335Z,2.40
2019-03-17T00:47:14.647Z,2.70
2019-03-17T00:49:42.046Z,2.40
2019-03-17T00:52:09.439Z,2.60
2019-03-17T00:54:36.839Z,3.20
2019-03-17T00:57:04.311Z,2.90
2019-03-17T00:59:31.795Z,2.53
2019-03-17T01:01:59.248Z,2.47
2019-03-17T01:04:26.583Z,3.23
2019-03-17T01:06:54.022Z,3.10
2019-03-17T01:09:40.876Z,3.17
2019-03-17T01:12:08.423Z,2.93
2019-03-17T01:14:35.711Z,3.00
2019-03-17T01:17:03.007Z,2.83
2019-03-17T01:19:30.500Z,3.07
2019-03-17T01:21:59.406Z,2.90
2019-03-17T01:24:26.741Z,3.40
2019-03-17T01:26:54.343Z,3.00
2019-03-17T01:29:21.621Z,3.03
2019-03-17T01:32:08.383Z,3.63
2019-03-17T01:34:35.654Z,2.90
2019-03-17T01:37:03.059Z,2.90
2019-03-17T01:39:30.421Z,3.30
2019-03-17T01:41:57.986Z,3.23
2019-03-17T01:44:27.751Z,3.30
2019-03-17T01:46:55.155Z,3.53
2019-03-17T01:49:22.495Z,3.07
2019-03-17T01:51:50.072Z,3.30
2019-03-17T01:54:17.370Z,3.47
2019-03-17T01:56:44.860Z,3.70
2019-03-17T01:59:12.212Z,3.90
2019-03-17T02:01:54.265Z,3.97
2019-03-17T02:04:21.637Z,3.57
2019-03-17T02:06:49.111Z,3.30
2019-03-17T02:09:16.593Z,5.07
2019-03-17T02:11:46.080Z,4.30
2019-03-17T02:14:13.502Z,4.20
2019-03-17T02:16:41.190Z,3.90
2019-03-17T02:19:08.697Z,4.13
2019-03-17T02:21:36.017Z,5.13
2019-03-17T02:24:03.397Z,4.37
2019-03-17T02:26:30.796Z,4.73
2019-03-17T02:28:58.187Z,4.70
2019-03-17T02:31:25.795Z,4.43
2019-03-17T02:33:53.276Z,5.00
2019-03-17T02:36:20.608Z,4.10
2019-03-17T02:38:48.137Z,4.47
2019-03-17T02:41:15.527Z,3.93
2019-03-17T02:43:42.906Z,4.20
2019-03-17T02:46:10.327Z,5.20
2019-03-17T02:48:37.704Z,4.67
2019-03-17T02:51:24.495Z,4.53
2019-03-17T02:53:51.940Z,2.20
2019-03-17T02:56:19.366Z,2.00
2019-03-17T02:58:46.743Z,1.60
2019-03-17T03:01:14.145Z,1.50
2019-03-17T03:03:41.466Z,1.80
2019-03-17T03:06:08.946Z,1.93
2019-03-17T03:08:36.316Z,1.90
2019-03-17T03:11:23.099Z,1.90
2019-03-17T03:13:50.412Z,2.40
2019-03-17T03:16:17.705Z,1.13
2019-03-17T03:18:45.205Z,0.73
2019-03-17T03:21:12.504Z,0.60
2019-03-17T03:23:39.996Z,0.83
2019-03-17T03:26:07.743Z,0.80
2019-03-17T03:28:35.235Z,1.33
2019-03-17T03:31:02.534Z,0.97
2019-03-17T03:33:30.106Z,1.27
2019-03-17T03:36:10.156Z,1.27
2019-03-17T03:38:26.682Z,0.87
2019-03-17T03:40:54.051Z,1.20
2019-03-17T03:43:21.629Z,1.30
2019-03-17T03:45:49.005Z,1.00
2019-03-17T03:48:16.463Z,0.90
2019-03-17T03:50:43.866Z,0.90
2019-03-17T03:53:11.214Z,1.17
2019-03-17T03:55:51.579Z,0.70
2019-03-17T03:58:19.027Z,1.03
2019-03-17T04:00:46.499Z,0.90
2019-03-17T04:03:14.039Z,1.07
2019-03-17T04:05:41.359Z,0.93
2019-03-17T04:08:08.832Z,1.27
2019-03-17T04:10:55.603Z,0.90
2019-03-17T04:13:22.979Z,0.90
2019-03-17T04:15:50.261Z,0.90
2019-03-17T04:18:17.690Z,0.90
2019-03-17T04:20:44.983Z,1.00
2019-03-17T04:23:12.436Z,1.30
2019-03-17T04:25:59.217Z,1.00
2019-03-17T04:28:26.701Z,1.13
2019-03-17T04:30:53.992Z,1.03
2019-03-17T04:33:21.297Z,1.20
2019-03-17T04:35:48.774Z,0.90
2019-03-17T04:38:35.557Z,1.00
2019-03-17T04:41:02.856Z,1.37
2019-03-17T04:43:30.179Z,1.00
2019-03-17T04:45:57.717Z,1.10
2019-03-17T04:48:25.038Z,1.00
2019-03-17T04:50:52.445Z,1.10
2019-03-17T04:53:39.200Z,0.90
2019-03-17T04:56:07.619Z,1.10
2019-03-17T04:58:34.898Z,1.10
2019-03-17T05:01:02.296Z,1.50
2019-03-17T05:03:29.632Z,1.10
2019-03-17T05:05:56.909Z,0.90
2019-03-17T05:08:24.289Z,1.37
2019-03-17T05:10:51.575Z,1.03
2019-03-17T05:13:18.894Z,1.23
2019-03-17T05:15:46.335Z,1.27
2019-03-17T05:18:13.693Z,1.30
2019-03-17T05:21:00.478Z,1.50
2019-03-17T05:23:27.832Z,1.23
2019-03-17T05:26:14.617Z,1.77
2019-03-17T05:28:41.924Z,2.17
2019-03-17T05:31:09.281Z,1.47
2019-03-17T05:33:36.615Z,1.40
2019-03-17T05:36:04.048Z,1.57
2019-03-17T05:38:31.376Z,1.60
2019-03-17T05:40:58.803Z,1.67
2019-03-17T05:43:26.095Z,1.90
2019-03-17T05:45:53.450Z,1.93
2019-03-17T05:48:40.294Z,2.10
2019-03-17T05:51:08.294Z,1.63
2019-03-17T05:53:35.679Z,1.40
2019-03-17T05:56:03.010Z,1.50
2019-03-17T05:58:30.480Z,1.53
2019-03-17T06:00:57.848Z,1.80
2019-03-17T06:03:25.268Z,1.40
2019-03-17T06:05:52.580Z,1.40
2019-03-17T06:08:20.036Z,1.20
2019-03-17T06:10:47.457Z,2.17
2019-03-17T06:13:14.770Z,1.47
2019-03-17T06:15:42.192Z,1.20
2019-03-17T06:18:09.560Z,1.53
2019-03-17T06:20:36.979Z,1.30
2019-03-17T06:23:04.274Z,3.30
2019-03-17T06:25:31.649Z,1.30
2019-03-17T06:27:59.046Z,1.33
2019-03-17T06:30:26.587Z,1.23
2019-03-17T06:32:54.204Z,1.40
2019-03-17T06:35:21.563Z,1.33
2019-03-17T06:37:49.083Z,1.27
2019-03-17T06:40:35.947Z,1.60
2019-03-17T06:43:03.515Z,0.87
2019-03-17T06:45:30.845Z,0.60
2019-03-17T06:47:58.336Z,0.80
2019-03-17T06:50:25.663Z,0.83
2019-03-17T06:52:53.839Z,0.60
2019-03-17T06:55:21.362Z,0.80
2019-03-17T06:57:48.646Z,0.97
2019-03-17T07:00:16.003Z,1.10
2019-03-17T07:02:43.423Z,2.50
2019-03-17T07:05:30.419Z,1.60
2019-03-17T07:07:57.868Z,1.17
2019-03-17T07:10:25.418Z,0.97
2019-03-17T07:13:12.267Z,0.50
2019-03-17T07:15:39.747Z,0.73
2019-03-17T07:18:07.078Z,1.27
2019-03-17T07:20:34.825Z,0.83
2019-03-17T07:23:02.350Z,1.20
2019-03-17T07:25:29.689Z,2.07
2019-03-17T07:27:57.114Z,0.90
2019-03-17T07:33:09.133Z,1.47
2019-03-17T07:35:56.106Z,0.70
2019-03-17T07:38:23.470Z,0.83
2019-03-17T07:40:50.862Z,0.97
2019-03-17T07:43:37.647Z,1.00
2019-03-17T07:46:05.198Z,0.93
2019-03-17T07:48:32.511Z,1.50
2019-03-17T07:50:59.971Z,1.20
2019-03-17T07:53:27.402Z,1.00
2019-03-17T07:55:54.710Z,1.30
2019-03-17T07:58:22.184Z,1.73
2019-03-17T08:01:09.369Z,1.10
2019-03-17T08:03:36.752Z,1.50
2019-03-17T08:06:04.130Z,1.30
2019-03-17T08:08:31.646Z,1.30
2019-03-17T08:10:59.287Z,1.67
2019-03-17T08:13:26.684Z,2.20
2019-03-17T08:15:54.142Z,2.00
2019-03-17T08:18:41.041Z,1.40
2019-03-17T08:21:27.912Z,1.67
2019-03-17T08:23:55.225Z,1.67
2019-03-17T08:26:22.573Z,1.50
2019-03-17T08:28:50.053Z,1.53
2019-03-17T08:31:36.816Z,1.40
2019-03-17T08:34:04.374Z,1.23
2019-03-17T08:36:31.939Z,1.30
2019-03-17T08:39:18.716Z,1.23
2019-03-17T08:41:49.087Z,1.30
2019-03-17T08:44:16.508Z,1.50
2019-03-17T08:46:43.914Z,1.13
2019-03-17T08:49:11.357Z,1.27
2019-03-17T08:51:58.140Z,1.40
2019-03-17T08:54:25.581Z,1.47
2019-03-17T08:56:53.124Z,1.40
2019-03-17T08:59:40.106Z,1.43
2019-03-17T09:02:07.636Z,1.13
2019-03-17T09:04:35.161Z,1.30
2019-03-17T09:07:02.522Z,1.40
2019-03-17T09:09:29.830Z,1.07
2019-03-17T09:12:16.578Z,0.60
2019-03-17T09:14:44.274Z,0.80
2019-03-17T09:17:14.722Z,0.70
2019-03-17T09:19:41.104Z,0.70
2019-03-17T09:22:08.606Z,0.80
2019-03-17T09:24:36.098Z,0.60
2019-03-17T09:27:22.875Z,1.00
2019-03-17T09:29:50.226Z,0.90
2019-03-17T09:32:37.067Z,1.43
2019-03-17T09:35:04.560Z,1.33
2019-03-17T09:37:31.891Z,0.90
2019-03-17T09:39:59.360Z,1.00
2019-03-17T09:42:26.823Z,1.30
2019-03-17T09:44:54.118Z,1.03
2019-03-17T09:47:21.583Z,0.90
2019-03-17T09:49:48.979Z,0.83
2019-03-17T09:52:16.447Z,1.17
2019-03-17T09:54:43.804Z,0.97
2019-03-17T09:57:11.424Z,1.30
2019-03-17T09:59:38.762Z,0.87
2019-03-17T10:02:06.373Z,0.87
2019-03-17T10:04:33.727Z,1.13
2019-03-17T10:07:01.082Z,1.27
2019-03-17T10:09:28.607Z,1.00
2019-03-17T10:12:15.385Z,1.27
2019-03-17T10:14:42.842Z,1.00
2019-03-17T10:17:10.271Z,0.83
2019-03-17T10:19:37.754Z,1.00
2019-03-17T10:22:05.121Z,0.77
2019-03-17T10:24:32.576Z,0.90
2019-03-17T10:26:59.874Z,0.80
2019-03-17T10:29:27.413Z,1.27
2019-03-17T10:31:54.727Z,1.07
2019-03-17T10:34:22.026Z,1.30
2019-03-17T10:37:11.680Z,1.50
2019-03-17T10:39:39.124Z,1.33
2019-03-17T10:42:06.438Z,1.03
2019-03-17T10:44:33.844Z,1.50
2019-03-17T10:47:01.238Z,1.27
2019-03-17T10:49:28.655Z,1.20
2019-03-17T10:51:56.396Z,1.47
2019-03-17T10:54:23.861Z,1.47
2019-03-17T10:56:51.204Z,0.97
2019-03-17T10:59:18.859Z,1.10
2019-03-17T11:02:05.770Z,1.40
2019-03-17T11:04:52.766Z,1.60
2019-03-17T11:10:17.816Z,0.87
2019-03-17T11:12:45.200Z,0.80
2019-03-17T11:15:32.196Z,0.87
2019-03-17T11:17:59.609Z,1.10
2019-03-17T11:20:46.381Z,0.90
2019-03-17T11:23:13.733Z,0.90
2019-03-17T11:25:41.353Z,1.03
2019-03-17T11:28:28.134Z,0.60
2019-03-17T11:30:59.339Z,0.73
2019-03-17T11:33:26.889Z,1.10
2019-03-17T11:35:54.288Z,0.80
2019-03-17T11:38:21.826Z,0.80
2019-03-17T11:40:49.133Z,0.90
2019-03-17T11:43:36.044Z,0.97
2019-03-17T11:48:48.177Z,1.17
2019-03-17T11:51:35.091Z,1.00
2019-03-17T11:54:15.703Z,0.90
2019-03-17T11:59:28.037Z,1.33
2019-03-17T12:01:55.592Z,1.00
2019-03-17T12:04:22.951Z,0.90
2019-03-17T12:06:50.391Z,0.80
2019-03-17T12:09:28.532Z,1.37
2019-03-17T12:11:47.007Z,1.00
2019-03-17T12:14:34.006Z,1.13
2019-03-17T12:17:20.857Z,1.10
2019-03-17T12:19:48.290Z,0.90
2019-03-17T12:22:15.858Z,1.90
2019-03-17T12:24:45.636Z,1.27
2019-03-17T12:27:13.220Z,1.20
2019-03-17T12:29:40.619Z,1.00
2019-03-17T12:32:08.212Z,1.30
2019-03-17T12:34:35.767Z,1.20
2019-03-17T12:37:03.060Z,1.50
2019-03-17T12:39:30.498Z,1.10
2019-03-17T12:41:57.983Z,0.90
2019-03-17T12:44:25.448Z,1.63
2019-03-17T12:46:52.769Z,1.20
2019-03-17T12:49:20.195Z,1.37
2019-03-17T12:52:06.979Z,1.20
2019-03-17T12:54:47.159Z,1.97
2019-03-17T12:57:14.751Z,1.20
2019-03-17T12:59:42.122Z,1.20
2019-03-17T13:02:09.951Z,1.60
2019-03-17T13:04:37.263Z,1.20
2019-03-17T13:07:04.677Z,1.30
2019-03-17T13:09:51.459Z,1.17
2019-03-17T13:12:18.897Z,0.90
2019-03-17T13:14:46.369Z,1.00
2019-03-17T13:17:13.916Z,1.10
2019-03-17T13:19:41.278Z,1.00
2019-03-17T13:22:08.860Z,1.03
2019-03-17T13:24:36.317Z,1.03
2019-03-17T13:27:03.904Z,0.90
2019-03-17T13:29:31.219Z,0.90
2019-03-17T13:31:58.716Z,0.90
2019-03-17T13:34:26.209Z,0.90
2019-03-17T13:36:53.541Z,0.60
2019-03-17T13:39:40.394Z,1.20
2019-03-17T13:42:07.890Z,0.80
2019-03-17T13:44:54.677Z,0.80
2019-03-17T13:47:22.159Z,1.07
2019-03-17T13:49:49.510Z,1.17
2019-03-17T13:52:16.883Z,0.97
2019-03-17T13:54:44.184Z,0.97
2019-03-17T13:57:11.643Z,1.00
2019-03-17T13:59:39.176Z,0.77
2019-03-17T14:02:06.541Z,1.50
2019-03-17T14:04:34.388Z,1.00
2019-03-17T14:07:22.558Z,1.73
2019-03-17T14:09:50.311Z,0.90
2019-03-17T14:12:17.713Z,1.10
2019-03-17T14:14:46.882Z,0.70
2019-03-17T14:17:14.598Z,1.10
2019-03-17T14:19:41.970Z,1.30
2019-03-17T14:22:09.466Z,1.07
2019-03-17T14:24:36.769Z,1.20
2019-03-17T14:27:23.534Z,0.90
2019-03-17T14:29:50.899Z,1.20
2019-03-17T14:32:18.228Z,1.07
2019-03-17T14:34:45.727Z,0.97
2019-03-17T14:37:13.122Z,1.53
2019-03-17T14:40:00.286Z,1.30
2019-03-17T14:42:27.771Z,1.00
2019-03-17T14:44:55.897Z,1.20
2019-03-17T14:47:23.482Z,1.10
2019-03-17T14:49:50.893Z,0.73
2019-03-17T14:52:18.402Z,0.93
2019-03-17T14:54:46.026Z,1.07
2019-03-17T14:57:13.387Z,1.00
2019-03-17T14:59:40.773Z,1.20
2019-03-17T15:02:08.284Z,0.90
2019-03-17T15:04:36.245Z,0.93
2019-03-17T15:07:03.743Z,1.10
2019-03-17T15:09:31.337Z,1.10
2019-03-17T15:12:18.324Z,1.00
2019-03-17T15:14:45.708Z,1.33
2019-03-17T15:17:13.016Z,0.93
2019-03-17T15:19:40.528Z,1.40
2019-03-17T15:22:08.011Z,1.17
2019-03-17T15:24:54.899Z,0.80
2019-03-17T15:27:22.258Z,0.70
2019-03-17T15:30:11.302Z,0.70
2019-03-17T15:32:38.630Z,1.03
2019-03-17T15:35:25.680Z,1.53
2019-03-17T15:37:53.104Z,0.60
2019-03-17T15:40:20.701Z,1.10
2019-03-17T15:42:48.403Z,0.90
2019-03-17T15:45:15.959Z,1.00
2019-03-17T15:47:43.363Z,1.23
2019-03-17T15:50:12.239Z,1.00
2019-03-17T15:52:40.260Z,1.10
2019-03-17T15:55:09.239Z,0.80
2019-03-17T15:57:38.652Z,1.40
2019-03-17T16:00:26.866Z,1.03
2019-03-17T16:02:54.712Z,1.03
2019-03-17T16:05:24.534Z,1.10
2019-03-17T16:07:51.882Z,0.80
2019-03-17T16:10:19.556Z,1.40
2019-03-17T16:12:47.087Z,0.80
2019-03-17T16:15:14.612Z,0.90
2019-03-17T16:17:42.326Z,0.70
2019-03-17T16:20:11.841Z,1.00
2019-03-17T16:22:39.437Z,0.90
2019-03-17T16:25:07.271Z,1.00
2019-03-17T16:27:34.674Z,0.83
2019-03-17T16:30:23.036Z,1.10
2019-03-17T16:33:09.960Z,1.20
2019-03-17T16:35:37.494Z,1.00
2019-03-17T16:38:04.812Z,1.00
2019-03-17T16:40:32.317Z,1.20
2019-03-17T16:42:59.691Z,1.10
2019-03-17T16:45:27.214Z,1.10
2019-03-17T16:47:54.705Z,0.73
2019-03-17T16:50:22.161Z,0.70
2019-03-17T16:52:49.708Z,0.93
2019-03-17T16:55:17.156Z,1.17
2019-03-17T16:57:44.769Z,1.20
2019-03-17T17:00:31.666Z,1.10
2019-03-17T17:02:59.273Z,1.50
2019-03-17T17:05:26.668Z,1.20
2019-03-17T17:07:54.213Z,1.60
2019-03-17T17:10:21.865Z,1.47
2019-03-17T17:12:49.235Z,1.00
2019-03-17T17:15:18.767Z,1.10
2019-03-17T17:17:46.088Z,1.00
2019-03-17T17:20:15.418Z,1.90
2019-03-17T17:22:48.999Z,1.23
2019-03-17T17:25:16.369Z,1.03
2019-03-17T17:27:43.820Z,0.90
2019-03-17T17:30:12.818Z,1.07
2019-03-17T17:32:43.168Z,1.10
2019-03-17T17:35:10.626Z,1.10
2019-03-17T17:37:38.311Z,1.00
2019-03-17T17:40:08.117Z,1.10
2019-03-17T17:42:38.348Z,1.70
2019-03-17T17:45:07.585Z,1.17
2019-03-17T17:47:35.248Z,1.30
2019-03-17T17:50:02.609Z,1.10
2019-03-17T17:52:30.077Z,1.27
2019-03-17T17:54:57.667Z,1.20
2019-03-17T17:57:44.558Z,1.50
2019-03-17T18:00:15.100Z,1.33
2019-03-17T18:02:42.534Z,1.10
2019-03-17T18:05:09.991Z,1.20
2019-03-17T18:07:37.376Z,1.07
2019-03-17T18:10:24.162Z,1.00
2019-03-17T18:12:51.614Z,1.20
2019-03-17T18:15:20.169Z,1.07
2019-03-17T18:17:47.599Z,1.47
2019-03-17T18:20:35.832Z,1.17
2019-03-17T18:23:03.164Z,1.40
2019-03-17T18:25:30.595Z,1.47
2019-03-17T18:27:58.043Z,1.10
2019-03-17T18:30:25.377Z,1.70
2019-03-17T18:33:12.248Z,0.97
2019-03-17T18:35:39.963Z,0.80
2019-03-17T18:38:07.278Z,1.00
2019-03-17T18:40:34.818Z,1.23
2019-03-17T18:43:02.524Z,0.80
2019-03-17T18:45:49.535Z,0.80
2019-03-17T18:48:36.434Z,0.63
2019-03-17T18:51:03.829Z,0.80
2019-03-17T18:53:31.383Z,1.00
2019-03-17T18:55:59.082Z,1.03
2019-03-17T18:58:26.538Z,1.10
2019-03-17T19:00:53.887Z,1.27
2019-03-17T19:03:21.290Z,1.10
2019-03-17T19:05:48.814Z,1.70
2019-03-17T19:08:16.222Z,3.50
2019-03-17T19:10:43.667Z,1.43
2019-03-17T19:13:30.543Z,1.10
2019-03-17T19:15:58.073Z,1.70
2019-03-17T19:18:25.492Z,1.37
2019-03-17T19:20:53.004Z,1.70
2019-03-17T19:23:20.372Z,1.43
2019-03-17T19:25:48.048Z,1.77
2019-03-17T19:28:15.448Z,1.20
2019-03-17T19:30:42.959Z,1.30
2019-03-17T19:33:10.351Z,1.43
2019-03-17T19:35:57.643Z,1.40
2019-03-17T19:38:25.153Z,1.40
2019-03-17T19:40:52.702Z,1.50
2019-03-17T19:43:20.192Z,1.37
2019-03-17T19:45:47.638Z,1.83
2019-03-17T19:48:14.975Z,1.30
2019-03-17T19:50:43.593Z,1.27
2019-03-17T19:53:11.075Z,0.70
2019-03-17T19:55:38.511Z,1.27
2019-03-17T19:58:06.025Z,1.23
2019-03-17T20:00:33.353Z,1.90
2019-03-17T20:03:00.775Z,1.70
2019-03-17T20:05:28.255Z,1.30
2019-03-17T20:07:55.775Z,1.73
2019-03-17T20:10:23.158Z,1.70
2019-03-17T20:12:50.492Z,1.50
2019-03-17T20:15:18.280Z,1.50
2019-03-17T20:17:45.722Z,1.20
2019-03-17T20:20:13.108Z,1.10
2019-03-17T20:22:40.516Z,0.80
2019-03-17T20:25:08.167Z,1.50
2019-03-17T20:27:35.775Z,1.87
2019-03-17T20:30:03.584Z,1.60
2019-03-17T20:32:50.747Z,1.50
2019-03-17T20:35:19.099Z,1.13
2019-03-17T20:37:46.477Z,1.40
2019-03-17T20:40:14.045Z,1.70
2019-03-17T20:42:41.466Z,1.10
2019-03-17T20:45:09.159Z,2.33
2019-03-17T20:47:55.898Z,1.10
2019-03-17T20:50:23.376Z,1.30
2019-03-17T20:53:10.233Z,1.50
2019-03-17T20:55:37.803Z,2.00
2019-03-17T20:58:05.129Z,1.20
2019-03-17T21:00:32.556Z,1.30
2019-03-17T21:03:19.385Z,1.90
2019-03-17T21:05:46.992Z,1.40
2019-03-17T21:08:14.389Z,1.30
2019-03-17T21:10:41.832Z,1.40
2019-03-17T21:13:09.154Z,2.60
2019-03-17T21:15:36.594Z,1.57
2019-03-17T21:18:03.890Z,1.20
2019-03-17T21:20:31.224Z,1.17
2019-03-17T21:22:58.687Z,1.10
2019-03-17T21:25:45.477Z,1.70
2019-03-17T21:28:12.975Z,1.53
2019-03-17T21:30:40.648Z,1.27
2019-03-17T21:33:27.573Z,0.90
2019-03-17T21:36:14.331Z,1.20
2019-03-17T21:38:41.668Z,1.20
2019-03-17T21:41:09.195Z,1.20
2019-03-17T21:43:36.550Z,1.47
2019-03-17T21:46:23.367Z,1.43
2019-03-17T21:48:50.796Z,1.30
2019-03-17T21:51:18.215Z,1.07
2019-03-17T21:53:45.549Z,1.30
2019-03-17T21:56:12.966Z,1.20
2019-03-17T21:58:40.379Z,1.57
2019-03-17T22:01:07.767Z,1.93
2019-03-17T22:03:54.603Z,1.70
2019-03-17T22:06:21.890Z,1.37
2019-03-17T22:08:49.474Z,1.60
2019-03-17T22:11:16.845Z,1.77
2019-03-17T22:13:44.288Z,1.60
2019-03-17T22:16:11.605Z,2.30
2019-03-17T22:18:39.088Z,1.67
2019-03-17T22:21:06.411Z,1.43
2019-03-17T22:23:34.014Z,1.30
2019-03-17T22:26:03.362Z,1.10
2019-03-17T22:28:31.104Z,1.00
2019-03-17T22:30:58.520Z,1.40
2019-03-17T22:33:25.968Z,1.43
2019-03-17T22:35:53.387Z,1.23
2019-03-17T22:38:20.847Z,1.20
2019-03-17T22:40:48.276Z,1.23
2019-03-17T22:43:15.836Z,1.30
2019-03-17T22:45:43.303Z,1.03
2019-03-17T22:48:10.691Z,1.40
2019-03-17T22:53:35.542Z,1.33
2019-03-17T22:56:02.999Z,1.70
2019-03-17T22:58:30.339Z,1.30
2019-03-17T23:00:57.888Z,1.53
2019-03-17T23:03:25.222Z,1.97
2019-03-17T23:05:52.825Z,1.13
2019-03-17T23:08:20.331Z,1.20
2019-03-17T23:10:47.857Z,1.37
2019-03-17T23:13:15.687Z,1.77
2019-03-17T23:15:43.108Z,1.63
2019-03-17T23:18:10.443Z,1.50
2019-03-17T23:20:37.768Z,1.40
2019-03-17T23:23:05.270Z,2.07
2019-03-17T23:25:32.872Z,1.20
2019-03-17T23:28:00.481Z,1.47
2019-03-17T23:30:28.309Z,1.23
2019-03-17T23:33:15.483Z,1.60
2019-03-17T23:35:42.927Z,1.30
2019-03-17T23:38:10.465Z,1.17
2019-03-17T23:40:37.784Z,1.63
2019-03-17T23:43:24.670Z,1.73
2019-03-17T23:45:52.163Z,1.67
2019-03-17T23:48:19.579Z,1.50
2019-03-17T23:50:47.214Z,1.53
2019-03-17T23:53:14.518Z,1.53
2019-03-17T23:55:42.087Z,1.40
2019-03-17T23:58:09.660Z,1.60
